Time;durP1;ratioP1;P1;durP2;ratioP2;P2;SDS_P1;SDS_P2;PMS_P1;PMS_P2;Temp;Humidity;BMP_temperature;BMP_pressure;BME280_temperature;BME280_humidity;BME280_pressure;Samples;Min_cycle;Max_cycle;Signal;HPM_P1;HPM_P2
2024/01/02 00:02:33;;;;;;;82.60;9.45;;;;;;;;;;6103206;23;20352;-91
2024/01/02 00:05:18;;;;;;;67.90;8.90;;;;;;;;;;6104380;23;20009;-89
2024/01/02 00:08:02;;;;;;;10.40;3.28;;;;;;;;;;6104249;23;20020;-88
2024/01/02 00:10:46;;;;;;;12.80;2.90;;;;;;;;;;6102828;23;20106;-88
2024/01/02 00:13:30;;;;;;;28.35;4.30;;;;;;;;;;6103280;23;20072;-90
2024/01/02 00:16:17;;;;;;;45.38;5.97;;;;;;;;;;6103333;23;20024;-89
2024/01/02 00:19:01;;;;;;;34.88;4.45;;;;;;;;;;6103045;23;20050;-88
2024/01/02 00:29:02;;;;;;;5.50;2.55;;;;;;;;;;6164827;22;20017;-88
2024/01/02 00:31:46;;;;;;;15.30;3.78;;;;;;;;;;6103294;23;20020;-88
2024/01/02 00:34:30;;;;;;;9.23;3.78;;;;;;;;;;6102786;23;20024;-87
2024/01/02 00:37:14;;;;;;;11.93;3.60;;;;;;;;;;6103112;23;20053;-88
2024/01/02 00:39:58;;;;;;;9.98;3.92;;;;;;;;;;6102743;23;20067;-87
2024/01/02 00:42:42;;;;;;;15.35;4.40;;;;;;;;;;6103594;23;20064;-90
2024/01/02 00:45:26;;;;;;;13.52;4.88;;;;;;;;;;6103268;23;20059;-88
2024/01/02 00:48:11;;;;;;;15.90;5.32;;;;;;;;;;6103304;23;20017;-89
2024/01/02 00:50:55;;;;;;;24.13;7.35;;;;;;;;;;6103012;23;20083;-89
2024/01/02 00:53:39;;;;;;;17.23;6.70;;;;;;;;;;6102727;23;20087;-88
2024/01/02 00:56:23;;;;;;;22.63;6.80;;;;;;;;;;6103218;23;20025;-86
2024/01/02 00:59:09;;;;;;;16.85;6.88;;;;;;;;;;6103240;23;20048;-88
2024/01/02 01:01:53;;;;;;;18.40;7.40;;;;;;;;;;6103361;23;20072;-87
2024/01/02 01:04:44;;;;;;;29.50;8.07;;;;;;;;;;6103173;23;20016;-88
2024/01/02 01:07:28;;;;;;;22.35;7.35;;;;;;;;;;6103115;23;20017;-87
2024/01/02 01:10:12;;;;;;;28.10;7.15;;;;;;;;;;6102927;23;20068;-88
2024/01/02 01:12:56;;;;;;;24.77;6.72;;;;;;;;;;6102983;23;20024;-87
2024/01/02 01:15:42;;;;;;;25.48;6.38;;;;;;;;;;6103506;23;20021;-87
2024/01/02 01:18:27;;;;;;;34.15;6.88;;;;;;;;;;6103094;23;20024;-88
2024/01/02 01:21:10;;;;;;;19.25;5.97;;;;;;;;;;6103026;23;20040;-88
2024/01/02 01:23:54;;;;;;;20.48;5.43;;;;;;;;;;6102749;23;20016;-87
2024/01/02 01:26:39;;;;;;;35.72;7.53;;;;;;;;;;6102680;23;20040;-88
2024/01/02 01:29:26;;;;;;;29.42;5.78;;;;;;;;;;6102537;23;20067;-88
2024/01/02 01:32:11;;;;;;;26.40;5.78;;;;;;;;;;6102460;23;20399;-87
2024/01/02 01:34:55;;;;;;;21.90;5.13;;;;;;;;;;6102297;23;20064;-88
2024/01/02 01:37:38;;;;;;;;;;;;;;;;;;6102826;23;20087;-87
2024/01/02 01:40:22;;;;;;;20.98;4.32;;;;;;;;;;6102158;23;19915;-88
2024/01/02 01:43:11;;;;;;;22.80;4.68;;;;;;;;;;6102049;23;20113;-90
2024/01/02 01:45:56;;;;;;;23.45;5.03;;;;;;;;;;6124644;23;20140;-88
2024/01/02 01:48:40;;;;;;;23.35;5.35;;;;;;;;;;6103005;23;20063;-89
2024/01/02 01:51:24;;;;;;;24.05;4.28;;;;;;;;;;6103263;23;20029;-89
2024/01/02 01:54:09;;;;;;;16.25;4.43;;;;;;;;;;6124487;23;20075;-88
2024/01/02 01:56:53;;;;;;;22.35;4.65;;;;;;;;;;6102473;23;20079;-88
2024/01/02 01:59:37;;;;;;;28.88;4.80;;;;;;;;;;6102460;23;20043;-88
2024/01/02 02:02:21;;;;;;;24.33;4.95;;;;;;;;;;6103012;23;20090;-86
2024/01/02 02:05:05;;;;;;;24.20;4.93;;;;;;;;;;6124734;23;20075;-86
2024/01/02 02:07:50;;;;;;;23.27;4.10;;;;;;;;;;6103027;23;20017;-87
2024/01/02 02:10:34;;;;;;;27.60;6.15;;;;;;;;;;6102769;23;20021;-87
2024/01/02 02:13:19;;;;;;;14.45;5.45;;;;;;;;;;6125610;23;20027;-87
2024/01/02 02:16:03;;;;;;;22.30;6.40;;;;;;;;;;6102735;23;20515;-88
2024/01/02 02:18:47;;;;;;;19.55;5.55;;;;;;;;;;6124547;23;20399;-89
2024/01/02 02:21:31;;;;;;;23.30;5.55;;;;;;;;;;6102299;23;20344;-88
2024/01/02 02:24:15;;;;;;;30.08;7.07;;;;;;;;;;6102215;23;20072;-88
2024/01/02 02:26:59;;;;;;;21.58;5.30;;;;;;;;;;6101495;23;20097;-87
2024/01/02 02:29:43;;;;;;;24.23;5.13;;;;;;;;;;6124338;23;20021;-89
2024/01/02 02:32:27;;;;;;;35.42;5.90;;;;;;;;;;6102112;23;20056;-88
2024/01/02 02:35:11;;;;;;;26.17;6.32;;;;;;;;;;6101846;23;20044;-88
2024/01/02 02:37:55;;;;;;;31.65;5.50;;;;;;;;;;6101689;23;20025;-86
2024/01/02 02:40:39;;;;;;;23.17;5.38;;;;;;;;;;6101503;23;20502;-88
2024/01/02 02:43:23;;;;;;;27.17;5.50;;;;;;;;;;6101581;23;20064;-90
2024/01/02 02:46:07;;;;;;;28.20;5.00;;;;;;;;;;6102010;23;20024;-87
2024/01/02 02:48:51;;;;;;;35.40;5.80;;;;;;;;;;6101309;23;20337;-88
2024/01/02 02:51:35;;;;;;;32.92;5.88;;;;;;;;;;6123532;23;20017;-86
2024/01/02 02:54:18;;;;;;;22.27;5.35;;;;;;;;;;6102016;23;20384;-88
2024/01/02 02:57:02;;;;;;;23.92;4.72;;;;;;;;;;6123804;23;20021;-86
2024/01/02 02:59:49;;;;;;;20.45;5.75;;;;;;;;;;6101741;23;20032;-87
2024/01/02 03:02:33;;;;;;;23.30;4.75;;;;;;;;;;6102003;23;20308;-87
2024/01/02 03:05:17;;;;;;;18.38;5.25;;;;;;;;;;6101834;23;20025;-87
2024/01/02 03:08:01;;;;;;;34.17;5.30;;;;;;;;;;6101346;23;20063;-86
2024/01/02 03:10:44;;;;;;;35.20;6.47;;;;;;;;;;6101436;23;20387;-86
2024/01/02 03:13:29;;;;;;;28.08;5.47;;;;;;;;;;6101474;23;20384;-87
2024/01/02 03:16:14;;;;;;;25.25;4.90;;;;;;;;;;6101506;23;20471;-88
2024/01/02 03:18:58;;;;;;;29.45;5.25;;;;;;;;;;6101534;23;20084;-88
2024/01/02 03:21:42;;;;;;;30.27;5.07;;;;;;;;;;6101962;23;20072;-87
2024/01/02 03:24:26;;;;;;;29.70;5.93;;;;;;;;;;6101821;23;20100;-88
2024/01/02 03:27:10;;;;;;;26.17;4.78;;;;;;;;;;6101639;23;20059;-90
2024/01/02 03:29:54;;;;;;;22.60;4.65;;;;;;;;;;6101354;23;20353;-87
2024/01/02 03:32:38;;;;;;;23.55;5.68;;;;;;;;;;6101942;23;20073;-86
2024/01/02 03:35:22;;;;;;;34.35;5.85;;;;;;;;;;6101511;23;20020;-87
2024/01/02 03:38:06;;;;;;;36.95;5.15;;;;;;;;;;6123562;23;20048;-87
2024/01/02 03:40:50;;;;;;;32.38;5.47;;;;;;;;;;6101282;23;20067;-87
2024/01/02 03:43:34;;;;;;;22.92;4.68;;;;;;;;;;6101308;23;20017;-89
2024/01/02 03:46:18;;;;;;;31.55;4.70;;;;;;;;;;6101575;23;20021;-88
2024/01/02 03:49:02;;;;;;;27.00;4.53;;;;;;;;;;6101216;23;20079;-88
2024/01/02 03:51:46;;;;;;;25.80;4.18;;;;;;;;;;6101419;23;20371;-88
2024/01/02 03:54:32;;;;;;;33.90;4.00;;;;;;;;;;6123389;23;20021;-87
2024/01/02 03:57:16;;;;;;;24.40;4.60;;;;;;;;;;6123004;23;20024;-87
2024/01/02 04:00:00;;;;;;;26.70;4.47;;;;;;;;;;6101182;23;20399;-87
2024/01/02 04:02:44;;;;;;;17.20;3.83;;;;;;;;;;6101173;23;20132;-88
2024/01/02 04:05:29;;;;;;;25.77;3.40;;;;;;;;;;6101025;23;20107;-87
2024/01/02 04:08:12;;;;;;;29.23;4.38;;;;;;;;;;6101110;23;20067;-87
2024/01/02 04:10:56;;;;;;;25.08;4.25;;;;;;;;;;6101228;23;20075;-88
2024/01/02 04:13:40;;;;;;;27.40;4.03;;;;;;;;;;6101315;23;20025;-88
2024/01/02 04:16:24;;;;;;;25.60;3.70;;;;;;;;;;6101210;23;20024;-88
2024/01/02 04:19:08;;;;;;;26.02;4.25;;;;;;;;;;6100828;23;20086;-88
2024/01/02 04:21:52;;;;;;;25.15;3.65;;;;;;;;;;6101352;23;20041;-89
2024/01/02 04:24:36;;;;;;;21.38;4.65;;;;;;;;;;6100992;23;20056;-87
2024/01/02 04:27:20;;;;;;;24.27;3.40;;;;;;;;;;6101415;23;20017;-87
2024/01/02 04:30:04;;;;;;;22.70;3.67;;;;;;;;;;6101011;23;20428;-87
2024/01/02 04:32:48;;;;;;;25.08;5.25;;;;;;;;;;6101144;23;20467;-88
2024/01/02 04:35:32;;;;;;;18.65;3.20;;;;;;;;;;6100899;23;20467;-89
2024/01/02 04:38:16;;;;;;;21.85;3.70;;;;;;;;;;6100956;23;20075;-86
2024/01/02 04:41:00;;;;;;;23.95;5.13;;;;;;;;;;6100475;23;20024;-87
2024/01/02 04:43:44;;;;;;;24.15;4.07;;;;;;;;;;6100522;23;20080;-87
2024/01/02 04:46:28;;;;;;;26.73;4.32;;;;;;;;;;6100828;23;20341;-88
2024/01/02 04:49:13;;;;;;;28.02;5.88;;;;;;;;;;6122179;23;20060;-89
2024/01/02 04:51:57;;;;;;;26.02;3.95;;;;;;;;;;6123049;23;20467;-89
2024/01/02 04:54:42;;;;;;;27.50;4.95;;;;;;;;;;6122957;23;20057;-87
2024/01/02 04:57:26;;;;;;;25.50;5.78;;;;;;;;;;6101087;23;20016;-88
2024/01/02 05:00:10;;;;;;;21.15;3.78;;;;;;;;;;6101278;23;20067;-88
2024/01/02 05:02:54;;;;;;;18.92;3.95;;;;;;;;;;6101105;23;20020;-87
2024/01/02 05:05:38;;;;;;;18.08;3.95;;;;;;;;;;6101499;23;20507;-88
2024/01/02 05:08:22;;;;;;;25.40;3.80;;;;;;;;;;6101055;23;20021;-86
2024/01/02 05:11:06;;;;;;;25.40;4.43;;;;;;;;;;6100701;23;20025;-88
2024/01/02 05:13:49;;;;;;;21.65;3.88;;;;;;;;;;6100772;23;20021;-88
2024/01/02 05:16:36;;;;;;;15.85;3.70;;;;;;;;;;6100478;23;20021;-89
2024/01/02 05:19:20;;;;;;;17.88;3.40;;;;;;;;;;6100484;23;20021;-87
2024/01/02 05:22:04;;;;;;;14.70;3.47;;;;;;;;;;6100628;23;20018;-87
2024/01/02 05:24:48;;;;;;;16.05;3.42;;;;;;;;;;6100486;23;20116;-87
2024/01/02 05:27:32;;;;;;;10.18;3.10;;;;;;;;;;6100500;23;20014;-87
2024/01/02 05:30:16;;;;;;;14.18;3.25;;;;;;;;;;6100344;23;20060;-87
2024/01/02 05:33:00;;;;;;;18.83;3.30;;;;;;;;;;6100341;23;20057;-86
2024/01/02 05:35:44;;;;;;;17.75;3.05;;;;;;;;;;6100337;23;20088;-88
2024/01/02 05:38:28;;;;;;;12.10;2.88;;;;;;;;;;6100458;23;20025;-88
2024/01/02 05:41:12;;;;;;;17.90;5.07;;;;;;;;;;6100307;23;20383;-88
2024/01/02 05:43:56;;;;;;;17.95;3.47;;;;;;;;;;6100249;23;20502;-87
2024/01/02 05:46:40;;;;;;;18.02;3.28;;;;;;;;;;6100153;23;20069;-87
2024/01/02 05:49:24;;;;;;;19.80;3.40;;;;;;;;;;6100199;23;20091;-89
2024/01/02 05:52:08;;;;;;;17.10;3.28;;;;;;;;;;6100217;23;20044;-88
2024/01/02 05:54:51;;;;;;;19.33;3.72;;;;;;;;;;6121795;23;20027;-89
2024/01/02 05:57:35;;;;;;;20.08;4.43;;;;;;;;;;6100320;23;20024;-88
2024/01/02 06:00:20;;;;;;;19.45;3.70;;;;;;;;;;6100451;23;20025;-86
2024/01/02 06:03:04;;;;;;;25.08;5.05;;;;;;;;;;6101614;23;20017;-89
2024/01/02 06:05:48;;;;;;;28.92;3.60;;;;;;;;;;6123710;23;20136;-88
2024/01/02 06:08:32;;;;;;;21.63;4.10;;;;;;;;;;6123858;23;20518;-87
2024/01/02 06:11:16;;;;;;;13.52;3.50;;;;;;;;;;6123830;23;20499;-87
2024/01/02 06:14:01;;;;;;;22.60;3.80;;;;;;;;;;6101394;23;20060;-87
2024/01/02 06:16:45;;;;;;;20.60;5.13;;;;;;;;;;6101548;23;20041;-87
2024/01/02 06:19:29;;;;;;;16.73;4.43;;;;;;;;;;6122192;23;20526;-88
2024/01/02 06:22:13;;;;;;;24.42;4.63;;;;;;;;;;6101977;23;20491;-87
2024/01/02 06:24:57;;;;;;;14.70;3.85;;;;;;;;;;6101730;23;20061;-88
2024/01/02 06:27:41;;;;;;;21.50;4.22;;;;;;;;;;6101657;23;20046;-87
2024/01/02 06:30:25;;;;;;;21.70;4.47;;;;;;;;;;6101459;23;20081;-88
2024/01/02 06:33:09;;;;;;;29.80;6.88;;;;;;;;;;6101562;23;20041;-87
2024/01/02 06:35:53;;;;;;;29.17;6.38;;;;;;;;;;6101496;23;20025;-86
2024/01/02 06:38:38;;;;;;;30.35;5.78;;;;;;;;;;6101422;23;20112;-87
2024/01/02 06:41:22;;;;;;;43.08;6.30;;;;;;;;;;6101264;23;20079;-88
2024/01/02 06:44:06;;;;;;;25.42;4.95;;;;;;;;;;6101532;23;20060;-87
2024/01/02 06:46:50;;;;;;;34.28;6.95;;;;;;;;;;6101060;23;20555;-88
2024/01/02 06:49:34;;;;;;;27.90;5.05;;;;;;;;;;6123153;23;20052;-90
2024/01/02 06:52:18;;;;;;;42.40;5.78;;;;;;;;;;6123326;23;20025;-88
2024/01/02 06:55:04;;;;;;;33.38;6.40;;;;;;;;;;6101282;23;20021;-88
2024/01/02 06:57:48;;;;;;;32.33;6.05;;;;;;;;;;6101466;23;20109;-89
2024/01/02 07:00:32;;;;;;;37.35;6.50;;;;;;;;;;6101288;23;20076;-88
2024/01/02 07:03:18;;;;;;;21.63;5.70;;;;;;;;;;6101518;23;20027;-91
2024/01/02 07:06:02;;;;;;;27.48;7.10;;;;;;;;;;6122973;23;20349;-87
2024/01/02 07:08:47;;;;;;;32.40;6.10;;;;;;;;;;6100959;23;20021;-87
2024/01/02 07:11:31;;;;;;;23.83;5.20;;;;;;;;;;6101712;23;20024;-87
2024/01/02 07:14:15;;;;;;;28.35;5.10;;;;;;;;;;6101492;23;20097;-89
2024/01/02 07:16:59;;;;;;;30.23;5.65;;;;;;;;;;6101383;23;20025;-87
2024/01/02 07:19:43;;;;;;;25.10;6.07;;;;;;;;;;6101590;23;20337;-88
2024/01/02 07:22:27;;;;;;;27.90;7.20;;;;;;;;;;6100900;23;20099;-89
2024/01/02 07:25:12;;;;;;;22.08;5.20;;;;;;;;;;6122991;23;20021;-87
2024/01/02 07:27:56;;;;;;;29.80;5.93;;;;;;;;;;6123919;23;20017;-89
2024/01/02 07:30:40;;;;;;;35.80;5.97;;;;;;;;;;6101137;23;20090;-87
2024/01/02 07:33:24;;;;;;;35.65;7.25;;;;;;;;;;6101035;23;20400;-88
2024/01/02 07:36:11;;;;;;;28.17;6.88;;;;;;;;;;6101430;23;20344;-87
2024/01/02 07:38:55;;;;;;;37.10;6.82;;;;;;;;;;6123936;23;20124;-88
2024/01/02 07:41:39;;;;;;;29.23;6.18;;;;;;;;;;6122940;23;20061;-87
2024/01/02 07:44:23;;;;;;;40.17;6.63;;;;;;;;;;6122675;23;20020;-88
2024/01/02 07:47:07;;;;;;;33.45;6.28;;;;;;;;;;6100829;23;20020;-89
2024/01/02 07:49:51;;;;;;;35.60;5.88;;;;;;;;;;6100864;23;20028;-90
2024/01/02 07:52:35;;;;;;;37.35;6.75;;;;;;;;;;6101261;23;20067;-88
2024/01/02 07:55:19;;;;;;;39.95;5.88;;;;;;;;;;6101097;23;20068;-87
2024/01/02 07:58:03;;;;;;;33.08;6.05;;;;;;;;;;6100893;23;20025;-86
2024/01/02 08:00:47;;;;;;;40.88;6.25;;;;;;;;;;6100461;23;20025;-87
2024/01/02 08:03:31;;;;;;;33.33;6.13;;;;;;;;;;6100838;23;20344;-89
2024/01/02 08:06:15;;;;;;;35.63;6.35;;;;;;;;;;6101278;23;20028;-89
2024/01/02 08:09:00;;;;;;;29.85;5.57;;;;;;;;;;6100842;23;20340;-89
2024/01/02 08:11:44;;;;;;;36.22;5.55;;;;;;;;;;6101452;23;20017;-89
2024/01/02 08:14:28;;;;;;;36.35;6.25;;;;;;;;;;6100904;23;20020;-88
2024/01/02 08:17:12;;;;;;;40.20;5.97;;;;;;;;;;6100818;23;20021;-88
2024/01/02 08:19:56;;;;;;;36.08;6.50;;;;;;;;;;6100515;23;20021;-88
2024/01/02 08:22:40;;;;;;;26.52;5.45;;;;;;;;;;6124228;23;20033;-89
2024/01/02 08:25:24;;;;;;;34.00;5.60;;;;;;;;;;6120933;23;20071;-90
2024/01/02 08:28:08;;;;;;;37.45;6.72;;;;;;;;;;6121516;23;20060;-88
2024/01/02 08:30:53;;;;;;;28.35;6.85;;;;;;;;;;6121259;23;20026;-86
2024/01/02 08:33:43;;;;;;;29.55;5.68;;;;;;;;;;6099462;23;20029;-88
2024/01/02 08:36:27;;;;;;;37.13;6.15;;;;;;;;;;6121226;23;20339;-86
2024/01/02 08:39:11;;;;;;;24.65;4.90;;;;;;;;;;6097204;23;20025;-86
2024/01/02 08:41:58;;;;;;;27.85;4.97;;;;;;;;;;6121028;23;20020;-87
2024/01/02 08:44:42;;;;;;;35.42;5.40;;;;;;;;;;6099302;23;20033;-88
2024/01/02 08:47:26;;;;;;;25.95;4.53;;;;;;;;;;6099330;23;20021;-88
2024/01/02 08:50:15;;;;;;;30.33;5.20;;;;;;;;;;6120772;22;20056;-87
2024/01/02 08:53:05;;;;;;;34.50;7.20;;;;;;;;;;6100482;23;20044;-89
2024/01/02 08:55:49;;;;;;;34.75;5.53;;;;;;;;;;6122526;23;20076;-91
2024/01/02 08:58:33;;;;;;;27.17;6.22;;;;;;;;;;6101594;23;20460;-91
2024/01/02 09:01:20;;;;;;;27.80;6.30;;;;;;;;;;6101224;23;20510;-90
2024/01/02 09:04:04;;;;;;;32.20;6.78;;;;;;;;;;6101069;23;20021;-91
2024/01/02 09:06:48;;;;;;;40.40;7.43;;;;;;;;;;6101147;23;20021;-89
2024/01/02 09:09:32;;;;;;;38.35;6.57;;;;;;;;;;6100485;23;20056;-88
2024/01/02 09:12:16;;;;;;;29.52;5.88;;;;;;;;;;6120188;23;20076;-88
2024/01/02 09:15:03;;;;;;;32.83;6.82;;;;;;;;;;6098409;23;20029;-88
2024/01/02 09:17:49;;;;;;;30.20;5.68;;;;;;;;;;6098713;23;20025;-86
2024/01/02 09:20:34;;;;;;;32.30;6.18;;;;;;;;;;6120636;23;20026;-85
2024/01/02 09:30:30;;;;;;;32.33;6.15;;;;;;;;;;6120642;23;20036;-88
2024/01/02 10:03:05;;;;;;;38.33;7.78;;;;;;;;;;6124944;23;20025;-88
2024/01/02 10:10:00;;;;;;;36.38;9.23;;;;;;;;;;6125459;23;20013;-89
2024/01/02 10:13:12;;;;;;;44.78;9.25;;;;;;;;;;6103542;23;20356;-89
2024/01/02 10:20:10;;;;;;;;;;;;;;;;;;;;;
2024/01/02 10:34:09;;;;;;;41.35;8.10;;;;;;;;;;6125556;23;20095;-88
2024/01/02 10:36:56;;;;;;;50.80;9.57;;;;;;;;;;6098915;23;20075;-86
2024/01/02 10:39:44;;;;;;;40.17;7.57;;;;;;;;;;6101252;23;20072;-87
2024/01/02 10:42:46;;;;;;;36.08;9.88;;;;;;;;;;6100690;23;20021;-88
2024/01/02 10:45:59;;;;;;;56.80;10.13;;;;;;;;;;6101615;23;20337;-87
2024/01/02 10:49:03;;;;;;;43.92;11.30;;;;;;;;;;6102348;23;20024;-88
2024/01/02 10:51:52;;;;;;;35.38;9.00;;;;;;;;;;6102905;23;20021;-91
2024/01/02 10:54:55;;;;;;;41.42;7.72;;;;;;;;;;6102484;23;20029;-87
2024/01/02 10:57:55;;;;;;;61.40;10.25;;;;;;;;;;6101616;23;20413;-88
2024/01/02 11:00:48;;;;;;;470.27;48.05;;;;;;;;;;6101462;23;20068;-88
2024/01/02 11:04:03;;;;;;;44.05;13.43;;;;;;;;;;6101620;23;20017;-88
2024/01/02 11:06:56;;;;;;;98.45;13.93;;;;;;;;;;6108964;23;20341;-90
2024/01/02 11:09:57;;;;;;;49.05;11.90;;;;;;;;;;6101032;23;20021;-86
2024/01/02 11:12:46;;;;;;;39.55;12.18;;;;;;;;;;6102522;23;20056;-89
2024/01/02 11:15:34;;;;;;;79.15;12.65;;;;;;;;;;6102029;23;20024;-89
2024/01/02 11:18:24;;;;;;;56.60;11.77;;;;;;;;;;6101198;23;20067;-88
2024/01/02 11:21:34;;;;;;;92.57;13.05;;;;;;;;;;6101118;23;20348;-89
2024/01/02 11:24:24;;;;;;;75.05;11.95;;;;;;;;;;6099843;23;20025;-89
2024/01/02 11:27:09;;;;;;;74.68;13.10;;;;;;;;;;6101518;23;20097;-89
2024/01/02 11:29:54;;;;;;;114.88;16.77;;;;;;;;;;6121045;23;20021;-89
2024/01/02 11:32:47;;;;;;;104.20;15.80;;;;;;;;;;6100018;23;20029;-90
2024/01/02 11:35:36;;;;;;;118.20;16.63;;;;;;;;;;6099758;23;20140;-90
2024/01/02 11:38:24;;;;;;;158.57;22.23;;;;;;;;;;6099203;23;20024;-87
2024/01/02 11:41:22;;;;;;;140.48;23.17;;;;;;;;;;6098793;23;20408;-89
2024/01/02 11:44:15;;;;;;;116.43;22.30;;;;;;;;;;6097703;23;20140;-88
2024/01/02 11:47:04;;;;;;;119.65;23.63;;;;;;;;;;6099668;23;20045;-88
2024/01/02 11:49:51;;;;;;;111.55;22.60;;;;;;;;;;6100262;23;20056;-89
2024/01/02 11:52:43;;;;;;;64.20;19.38;;;;;;;;;;6100295;23;20021;-90
2024/01/02 11:55:36;;;;;;;56.25;19.13;;;;;;;;;;6102343;23;20102;-90
2024/01/02 11:58:33;;;;;;;103.22;21.55;;;;;;;;;;6100565;23;20052;-88
2024/01/02 12:01:29;;;;;;;224.45;29.25;;;;;;;;;;6100957;23;20024;-87
2024/01/02 12:04:32;;;;;;;290.98;41.10;;;;;;;;;;6119738;23;20092;-85
2024/01/02 12:07:24;;;;;;;411.23;51.97;;;;;;;;;;6102362;23;20017;-89
2024/01/02 12:10:09;;;;;;;96.07;23.13;;;;;;;;;;6102621;23;20404;-89
2024/01/02 12:12:54;;;;;;;192.13;30.95;;;;;;;;;;6101625;23;20025;-90
2024/01/02 12:15:57;;;;;;;246.05;32.13;;;;;;;;;;6102719;23;20025;-91
2024/01/02 12:19:01;;;;;;;62.78;20.50;;;;;;;;;;6106694;23;20024;-90
2024/01/02 12:21:55;;;;;;;;;;;;;;;;;;6107319;23;20095;-89
2024/01/02 12:35:47;;;;;;;451.65;67.35;;;;;;;;;;6130034;23;20025;-89
2024/01/02 12:38:51;;;;;;;502.60;60.28;;;;;;;;;;6067284;23;20089;-88
2024/01/02 12:41:37;;;;;;;140.65;22.48;;;;;;;;;;6081780;23;20329;-88
2024/01/02 12:44:23;;;;;;;174.25;28.02;;;;;;;;;;6102804;23;20071;-89
2024/01/02 12:47:12;;;;;;;1042.72;124.40;;;;;;;;;;6102116;23;20029;-89
2024/01/02 12:50:04;;;;;;;754.42;93.72;;;;;;;;;;6101788;23;20148;-89
2024/01/02 12:52:51;;;;;;;1292.45;148.70;;;;;;;;;;6102832;23;20021;-88
2024/01/02 12:55:44;;;;;;;1426.45;173.43;;;;;;;;;;6100961;23;20017;-90
2024/01/02 12:58:31;;;;;;;744.93;100.00;;;;;;;;;;6092586;23;20026;-89
2024/01/02 13:01:16;;;;;;;1820.13;219.63;;;;;;;;;;6093431;23;20467;-89
2024/01/02 13:04:00;;;;;;;1431.70;200.68;;;;;;;;;;6092766;23;20020;-88
2024/01/02 13:06:45;;;;;;;572.65;71.82;;;;;;;;;;6093767;23;20456;-89
2024/01/02 13:09:29;;;;;;;692.13;99.00;;;;;;;;;;6092786;23;20468;-89
2024/01/02 13:12:17;;;;;;;996.53;121.80;;;;;;;;;;6093431;23;20022;-88
2024/01/02 13:15:05;;;;;;;588.50;86.15;;;;;;;;;;6094312;23;20017;-89
2024/01/02 13:17:52;;;;;;;784.28;126.35;;;;;;;;;;6095153;23;20073;-89
2024/01/02 13:20:43;;;;;;;922.13;142.05;;;;;;;;;;6094147;23;20365;-89
2024/01/02 13:23:30;;;;;;;964.38;163.48;;;;;;;;;;6122706;23;20025;-89
2024/01/02 13:26:15;;;;;;;784.08;109.93;;;;;;;;;;6095020;23;20505;-89
2024/01/02 13:29:08;;;;;;;192.52;26.95;;;;;;;;;;6095016;23;20037;-89
2024/01/02 13:43:23;;;;;;;521.33;84.93;;;;;;;;;;6097778;23;20122;-88
2024/01/02 13:53:24;;;;;;;337.90;50.63;;;;;;;;;;6095783;23;20086;-84
2024/01/02 13:59:41;;;;;;;972.80;134.73;;;;;;;;;;6126033;22;20029;-91
2024/01/02 14:06:22;;;;;;;296.60;41.30;;;;;;;;;;6142313;23;20040;-89
2024/01/02 14:09:35;;;;;;;86.00;16.05;;;;;;;;;;6106556;23;20071;-90
2024/01/02 14:12:23;;;;;;;267.15;33.70;;;;;;;;;;6105472;23;20053;-88
2024/01/02 14:15:21;;;;;;;23.88;9.00;;;;;;;;;;6102312;23;20392;-88
2024/01/02 14:18:06;;;;;;;109.13;15.10;;;;;;;;;;6102664;23;20350;-89
2024/01/02 14:20:56;;;;;;;58.47;18.52;;;;;;;;;;6102861;23;20101;-89
2024/01/02 14:24:04;;;;;;;49.95;21.65;;;;;;;;;;6103690;23;20053;-88
2024/01/02 14:27:00;;;;;;;134.50;27.60;;;;;;;;;;6103777;23;20048;-89
2024/01/02 14:30:04;;;;;;;24.50;13.52;;;;;;;;;;6103144;23;20025;-89
2024/01/02 14:36:01;;;;;;;30.70;11.82;;;;;;;;;;6123277;23;20040;-89
2024/01/02 14:39:04;;;;;;;321.98;45.53;;;;;;;;;;6101185;23;20106;-88
2024/01/02 14:42:07;;;;;;;475.93;60.13;;;;;;;;;;6100285;23;20025;-88
2024/01/02 14:45:15;;;;;;;223.18;28.10;;;;;;;;;;6099419;23;20391;-89
2024/01/02 14:47:59;;;;;;;103.72;13.55;;;;;;;;;;6100805;23;20048;-89
2024/01/02 14:50:43;;;;;;;56.53;11.05;;;;;;;;;;6101605;23;20025;-88
2024/01/02 14:53:47;;;;;;;57.60;9.20;;;;;;;;;;6102546;23;20033;-90
2024/01/02 14:56:38;;;;;;;35.55;7.60;;;;;;;;;;6099996;23;20021;-87
2024/01/02 14:59:38;;;;;;;136.52;18.15;;;;;;;;;;6097849;23;20526;-83
2024/01/02 15:02:36;;;;;;;20.83;6.43;;;;;;;;;;6097443;23;20340;-85
2024/01/02 15:05:29;;;;;;;464.88;53.80;;;;;;;;;;6097540;23;20099;-84
2024/01/02 15:08:42;;;;;;;32.63;6.47;;;;;;;;;;6123407;23;20037;-92
2024/01/02 15:12:11;;;;;;;;;;;;;;;;;;;;;
2024/01/02 15:15:12;;;;;;;33.78;7.22;;;;;;;;;;6134088;23;20048;-90
2024/01/02 15:18:18;;;;;;;34.58;7.03;;;;;;;;;;6112755;23;20025;-91
2024/01/02 15:21:06;;;;;;;24.63;6.63;;;;;;;;;;6112513;23;20025;-90
2024/01/02 15:24:09;;;;;;;19.23;6.10;;;;;;;;;;6109072;23;20036;-89
2024/01/02 15:26:59;;;;;;;32.83;9.43;;;;;;;;;;6106335;23;20032;-90
2024/01/02 15:29:51;;;;;;;121.50;19.15;;;;;;;;;;6102007;23;20024;-88
2024/01/02 15:32:37;;;;;;;35.88;11.57;;;;;;;;;;6100071;23;20069;-90
2024/01/02 15:35:25;;;;;;;200.82;25.30;;;;;;;;;;6099796;23;20554;-90
2024/01/02 15:38:21;;;;;;;84.10;15.90;;;;;;;;;;6100008;23;20024;-89
2024/01/02 15:41:06;;;;;;;86.85;19.95;;;;;;;;;;6099555;23;20021;-90
2024/01/02 15:44:01;;;;;;;80.30;20.33;;;;;;;;;;6100305;23;20017;-89
2024/01/02 15:46:51;;;;;;;32.17;13.13;;;;;;;;;;6121956;23;20459;-90
2024/01/02 15:49:59;;;;;;;213.70;39.05;;;;;;;;;;6099573;23;20049;-89
2024/01/02 15:52:47;;;;;;;57.15;16.35;;;;;;;;;;6099929;23;20036;-89
2024/01/02 15:55:35;;;;;;;31.77;12.85;;;;;;;;;;6101007;23;20109;-88
2024/01/02 15:58:28;;;;;;;87.50;20.50;;;;;;;;;;6101175;23;20376;-89
2024/01/02 16:01:12;;;;;;;49.47;14.13;;;;;;;;;;6101477;23;20083;-88
2024/01/02 16:04:06;;;;;;;98.57;18.30;;;;;;;;;;6100130;23;20029;-89
2024/01/02 16:06:59;;;;;;;85.93;16.75;;;;;;;;;;6101792;23;20044;-88
2024/01/02 16:09:45;;;;;;;84.18;16.67;;;;;;;;;;6102227;23;20143;-91
2024/01/02 16:12:37;;;;;;;37.15;8.95;;;;;;;;;;6100853;23;20022;-90
2024/01/02 16:15:44;;;;;;;40.03;11.73;;;;;;;;;;6100783;23;20052;-89
2024/01/02 16:18:52;;;;;;;27.90;8.85;;;;;;;;;;6101814;23;20052;-89
2024/01/02 16:21:51;;;;;;;47.92;12.10;;;;;;;;;;6100675;23;20024;-88
2024/01/02 16:24:38;;;;;;;99.43;16.10;;;;;;;;;;6100816;23;20076;-90
2024/01/02 16:27:34;;;;;;;28.38;9.40;;;;;;;;;;6100102;23;20017;-90
2024/01/02 16:30:29;;;;;;;96.90;16.00;;;;;;;;;;6099801;23;20021;-90
2024/01/02 16:33:31;;;;;;;78.32;11.82;;;;;;;;;;6100559;23;20045;-89
2024/01/02 16:36:34;;;;;;;24.42;8.00;;;;;;;;;;6101608;23;20024;-89
2024/01/02 16:39:26;;;;;;;24.10;9.90;;;;;;;;;;6122998;23;20020;-89
2024/01/02 16:42:10;;;;;;;100.10;22.20;;;;;;;;;;6100728;23;20021;-88
2024/01/02 16:44:55;;;;;;;33.75;12.85;;;;;;;;;;6100503;23;20021;-89
2024/01/02 16:47:39;;;;;;;159.80;24.05;;;;;;;;;;6099990;23;20021;-89
2024/01/02 16:50:23;;;;;;;49.30;11.40;;;;;;;;;;6100659;23;20076;-89
2024/01/02 16:53:10;;;;;;;32.97;9.38;;;;;;;;;;6100335;23;20029;-87
2024/01/02 16:55:54;;;;;;;15.48;7.38;;;;;;;;;;6098465;23;20096;-88
2024/01/02 16:58:39;;;;;;;22.92;9.32;;;;;;;;;;6120703;23;20052;-88
2024/01/02 17:01:25;;;;;;;85.50;14.23;;;;;;;;;;6098468;23;20024;-88
2024/01/02 17:04:09;;;;;;;84.28;14.63;;;;;;;;;;6120834;23;20151;-89
2024/01/02 17:06:53;;;;;;;76.18;15.63;;;;;;;;;;6100286;23;20537;-88
2024/01/02 17:09:38;;;;;;;36.15;9.70;;;;;;;;;;6102374;23;20021;-89
2024/01/02 17:12:22;;;;;;;43.38;9.88;;;;;;;;;;6103062;23;20017;-88
2024/01/02 17:15:27;;;;;;;220.25;28.98;;;;;;;;;;6104739;23;20098;-88
2024/01/02 17:18:12;;;;;;;7.50;3.10;;;;;;;;;;6101049;23;20110;-89
2024/01/02 17:20:56;;;;;;;28.90;5.15;;;;;;;;;;6100499;23;20040;-88
2024/01/02 17:23:40;;;;;;;27.65;5.38;;;;;;;;;;6100118;23;20063;-89
2024/01/02 17:26:24;;;;;;;12.82;4.10;;;;;;;;;;6099640;23;20025;-88
2024/01/02 17:29:16;;;;;;;12.93;4.18;;;;;;;;;;6099080;23;20021;-87
2024/01/02 17:32:03;;;;;;;16.45;4.25;;;;;;;;;;6099993;23;20203;-89
2024/01/02 17:34:47;;;;;;;19.15;5.80;;;;;;;;;;6099526;23;20041;-88
2024/01/02 17:37:32;;;;;;;68.57;10.93;;;;;;;;;;6100704;23;20462;-84
2024/01/02 17:40:16;;;;;;;140.10;16.73;;;;;;;;;;6122384;23;20024;-89
2024/01/02 17:43:03;;;;;;;14.50;5.68;;;;;;;;;;6102144;23;20044;-90
2024/01/02 17:45:50;;;;;;;17.88;4.55;;;;;;;;;;6107829;23;20041;-90
2024/01/02 17:48:36;;;;;;;35.75;7.10;;;;;;;;;;6101875;23;20520;-87
2024/01/02 17:51:21;;;;;;;103.80;12.75;;;;;;;;;;6100468;23;20072;-89
2024/01/02 17:54:09;;;;;;;7.20;3.88;;;;;;;;;;6103178;23;20100;-89
2024/01/02 17:57:28;;;;;;;52.58;9.15;;;;;;;;;;6101783;23;20037;-89
2024/01/02 18:00:15;;;;;;;38.92;5.15;;;;;;;;;;6174176;23;20109;-89
2024/01/02 18:03:01;;;;;;;22.17;4.97;;;;;;;;;;6248344;23;20351;-89
2024/01/02 18:05:47;;;;;;;19.45;4.57;;;;;;;;;;6227058;23;20473;-89
2024/01/02 18:08:44;;;;;;;36.47;6.20;;;;;;;;;;6225894;23;20038;-90
2024/01/02 18:11:40;;;;;;;6.35;2.45;;;;;;;;;;6227395;23;20019;-88